createdAt,value
2018-09-04T00:00:00.253Z,100.00
2018-09-04T00:02:29.527Z,100.00
2018-09-04T00:04:58.664Z,100.00
2018-09-04T00:07:27.785Z,100.00
2018-09-04T00:09:56.940Z,100.00
2018-09-04T00:12:26.137Z,100.00
2018-09-04T00:14:55.249Z,100.00
2018-09-04T00:17:24.412Z,100.00
2018-09-04T00:19:53.625Z,100.00
2018-09-04T00:22:22.736Z,100.00
2018-09-04T00:24:51.923Z,100.00
2018-09-04T00:27:21.114Z,100.00
2018-09-04T00:29:50.204Z,100.00
2018-09-04T00:32:19.356Z,100.00
2018-09-04T00:34:48.499Z,100.00
2018-09-04T00:37:17.682Z,100.00
2018-09-04T00:39:47.130Z,100.00
2018-09-04T00:42:16.316Z,100.00
2018-09-04T00:44:45.578Z,100.00
2018-09-04T00:47:14.700Z,100.00
2018-09-04T00:49:43.840Z,100.00
2018-09-04T00:52:13.142Z,100.00
2018-09-04T00:54:42.219Z,100.00
2018-09-04T00:57:11.386Z,100.00
2018-09-04T00:59:40.534Z,100.00
2018-09-04T01:02:09.927Z,100.00
2018-09-04T01:04:39.161Z,100.00
2018-09-04T01:07:08.279Z,100.00
2018-09-04T01:09:37.512Z,100.00
2018-09-04T01:12:06.661Z,100.00
2018-09-04T01:14:35.873Z,100.00
2018-09-04T01:17:05.285Z,100.00
2018-09-04T01:19:34.453Z,100.00
2018-09-04T01:22:03.681Z,100.00
2018-09-04T01:24:32.824Z,100.00
2018-09-04T01:27:02.077Z,100.00
2018-09-04T01:29:31.209Z,100.00
2018-09-04T01:32:00.363Z,100.00
2018-09-04T01:34:29.485Z,100.00
2018-09-04T01:36:58.604Z,100.00
2018-09-04T01:39:27.712Z,100.00
2018-09-04T01:41:56.893Z,100.00
2018-09-04T01:44:26.049Z,100.00
2018-09-04T01:46:55.245Z,100.00
2018-09-04T01:49:24.376Z,100.00
2018-09-04T01:51:53.548Z,100.00
2018-09-04T01:54:22.672Z,100.00
2018-09-04T01:56:51.900Z,100.00
2018-09-04T01:59:20.988Z,100.00
2018-09-04T02:01:50.208Z,100.00
2018-09-04T02:04:19.389Z,100.00
2018-09-04T02:06:48.520Z,100.00
2018-09-04T02:09:17.704Z,100.00
2018-09-04T02:11:46.899Z,100.00
2018-09-04T02:14:16.210Z,100.00
2018-09-04T02:16:45.441Z,100.00
2018-09-04T02:19:14.557Z,100.00
2018-09-04T02:21:43.794Z,100.00
2018-09-04T02:24:13.090Z,100.00
2018-09-04T02:26:42.292Z,100.00
2018-09-04T02:29:11.469Z,100.00
2018-09-04T02:31:40.570Z,100.00
2018-09-04T02:34:09.784Z,100.00
2018-09-04T02:36:38.981Z,100.00
2018-09-04T02:39:09.674Z,100.00
2018-09-04T02:41:38.863Z,100.00
2018-09-04T02:44:08.044Z,100.00
2018-09-04T02:46:37.451Z,100.00
2018-09-04T02:49:07.000Z,100.00
2018-09-04T02:51:36.576Z,100.00
2018-09-04T02:54:06.043Z,100.00
2018-09-04T02:56:35.158Z,100.00
2018-09-04T02:59:04.346Z,100.00
2018-09-04T03:01:33.568Z,100.00
2018-09-04T03:04:02.773Z,100.00
2018-09-04T03:06:31.910Z,100.00
2018-09-04T03:09:01.043Z,100.00
2018-09-04T03:11:30.213Z,100.00
2018-09-04T03:13:59.404Z,100.00
2018-09-04T03:16:28.485Z,100.00
2018-09-04T03:18:57.605Z,100.00
2018-09-04T03:21:26.748Z,100.00
2018-09-04T03:23:55.956Z,100.00
2018-09-04T03:26:25.141Z,100.00
2018-09-04T03:28:54.268Z,100.00
2018-09-04T03:31:23.457Z,100.00
2018-09-04T03:33:52.586Z,100.00
2018-09-04T03:36:21.792Z,100.00
2018-09-04T03:38:50.900Z,100.00
2018-09-04T03:41:20.028Z,100.00
2018-09-04T03:43:49.126Z,100.00
2018-09-04T03:46:18.275Z,100.00
2018-09-04T03:48:47.449Z,100.00
2018-09-04T03:51:16.576Z,100.00
2018-09-04T03:53:45.752Z,100.00
2018-09-04T03:56:14.857Z,100.00
2018-09-04T03:58:44.003Z,100.00
2018-09-04T04:01:13.159Z,100.00
2018-09-04T04:03:42.424Z,100.00
2018-09-04T04:06:11.548Z,100.00
2018-09-04T04:08:40.687Z,100.00
2018-09-04T04:11:10.031Z,100.00
2018-09-04T04:13:39.220Z,100.00
2018-09-04T04:16:08.413Z,100.00
2018-09-04T04:18:37.723Z,100.00
2018-09-04T04:21:06.887Z,100.00
2018-09-04T04:23:36.059Z,100.00
2018-09-04T04:26:05.210Z,100.00
2018-09-04T04:28:34.331Z,100.00
2018-09-04T04:31:03.537Z,100.00
2018-09-04T04:33:32.709Z,100.00
2018-09-04T04:36:01.833Z,100.00
2018-09-04T04:38:31.079Z,100.00
2018-09-04T04:41:00.240Z,100.00
2018-09-04T04:43:29.400Z,100.00
2018-09-04T04:45:58.537Z,100.00
2018-09-04T04:48:27.697Z,100.00
2018-09-04T04:50:56.864Z,100.00
2018-09-04T04:53:26.025Z,100.00
2018-09-04T04:55:55.165Z,100.00
2018-09-04T04:58:24.488Z,100.00
2018-09-04T05:00:53.672Z,100.00
2018-09-04T05:03:22.789Z,100.00
2018-09-04T05:05:51.970Z,100.00
2018-09-04T05:08:21.080Z,100.00
2018-09-04T05:10:50.200Z,100.00
2018-09-04T05:13:19.472Z,100.00
2018-09-04T05:15:48.741Z,100.00
2018-09-04T05:18:17.987Z,100.00
2018-09-04T05:20:47.140Z,100.00
2018-09-04T05:23:16.529Z,100.00
2018-09-04T05:25:45.761Z,100.00
2018-09-04T05:28:14.888Z,100.00
2018-09-04T05:30:44.099Z,100.00
2018-09-04T05:33:15.652Z,100.00
2018-09-04T05:35:53.164Z,100.00
2018-09-04T05:38:22.901Z,100.00
2018-09-04T05:40:52.119Z,100.00
2018-09-04T05:43:27.851Z,100.00
2018-09-04T05:45:59.009Z,100.00
2018-09-04T05:48:28.188Z,100.00
2018-09-04T05:50:57.384Z,100.00
2018-09-04T05:53:26.535Z,100.00
2018-09-04T05:55:55.894Z,100.00
2018-09-04T05:58:25.226Z,100.00
2018-09-04T06:00:57.942Z,100.00
2018-09-04T06:03:28.070Z,100.00
2018-09-04T06:05:57.311Z,100.00
2018-09-04T06:08:26.572Z,100.00
2018-09-04T06:10:55.692Z,100.00
2018-09-04T06:13:24.908Z,100.00
2018-09-04T06:15:54.275Z,100.00
2018-09-04T06:18:23.474Z,100.00
2018-09-04T06:20:52.596Z,100.00
2018-09-04T06:23:21.766Z,100.00
2018-09-04T06:25:50.898Z,100.00
2018-09-04T06:28:20.026Z,100.00
2018-09-04T06:30:49.169Z,100.00
2018-09-04T06:33:18.372Z,100.00
2018-09-04T06:35:48.564Z,100.00
2018-09-04T06:38:17.786Z,100.00
2018-09-04T06:40:46.912Z,100.00
2018-09-04T06:43:16.174Z,100.00
2018-09-04T06:45:45.346Z,100.00
2018-09-04T06:48:14.452Z,100.00
2018-09-04T06:50:43.751Z,100.00
2018-09-04T06:53:12.913Z,100.00
2018-09-04T06:55:42.134Z,100.00
2018-09-04T06:58:11.356Z,100.00
2018-09-04T07:00:40.532Z,100.00
2018-09-04T07:03:09.655Z,100.00
2018-09-04T07:05:38.831Z,100.00
2018-09-04T07:08:08.047Z,100.00
2018-09-04T07:10:37.175Z,100.00
2018-09-04T07:13:06.519Z,100.00
2018-09-04T07:15:35.823Z,100.00
2018-09-04T07:18:05.453Z,100.00
2018-09-04T07:20:34.725Z,100.00
2018-09-04T07:23:03.847Z,100.00
2018-09-04T07:25:32.989Z,100.00
2018-09-04T07:28:02.141Z,100.00
2018-09-04T07:30:31.274Z,100.00
2018-09-04T07:33:00.377Z,100.00
2018-09-04T07:35:29.497Z,100.00
2018-09-04T07:37:58.616Z,100.00
2018-09-04T07:40:27.728Z,100.00
2018-09-04T07:42:57.012Z,100.00
2018-09-04T07:45:26.135Z,100.00
2018-09-04T07:47:55.312Z,100.00
2018-09-04T07:50:24.409Z,100.00
2018-09-04T07:52:53.550Z,100.00
2018-09-04T07:55:22.659Z,100.00
2018-09-04T07:57:51.870Z,100.00
2018-09-04T08:00:20.986Z,100.00
2018-09-04T08:02:50.150Z,100.00
2018-09-04T08:05:19.278Z,100.00
2018-09-04T08:07:48.389Z,100.00
2018-09-04T08:10:17.787Z,100.00
2018-09-04T08:12:46.872Z,100.00
2018-09-04T08:15:16.014Z,100.00
2018-09-04T08:17:45.185Z,100.00
2018-09-04T08:20:14.327Z,100.00
2018-09-04T08:22:43.457Z,100.00
2018-09-04T08:25:12.562Z,100.00
2018-09-04T08:27:41.697Z,100.00
2018-09-04T08:30:10.797Z,100.00
2018-09-04T08:32:39.967Z,100.00
2018-09-04T08:35:09.160Z,100.00
2018-09-04T08:37:38.348Z,100.00
2018-09-04T08:40:07.488Z,100.00
2018-09-04T08:42:36.784Z,100.00
2018-09-04T08:45:05.893Z,100.00
2018-09-04T08:47:35.013Z,100.00
2018-09-04T08:50:04.229Z,100.00
2018-09-04T08:52:33.444Z,100.00
2018-09-04T08:55:02.660Z,100.00
2018-09-04T08:57:31.811Z,100.00
2018-09-04T09:00:01.033Z,100.00
2018-09-04T09:02:30.157Z,100.00
2018-09-04T09:04:59.315Z,100.00
2018-09-04T09:07:28.519Z,100.00
2018-09-04T09:09:57.680Z,100.00
2018-09-04T09:12:26.776Z,100.00
2018-09-04T09:14:55.860Z,100.00
2018-09-04T09:17:24.964Z,100.00
2018-09-04T09:19:54.504Z,100.00
2018-09-04T09:22:23.617Z,100.00
2018-09-04T09:24:52.788Z,100.00
2018-09-04T09:27:21.909Z,100.00
2018-09-04T09:29:51.073Z,100.00
2018-09-04T09:32:20.200Z,100.00
2018-09-04T09:34:49.395Z,100.00
2018-09-04T09:37:18.572Z,100.00
2018-09-04T09:39:47.779Z,100.00
2018-09-04T09:42:17.078Z,100.00
2018-09-04T09:44:46.347Z,100.00
2018-09-04T09:47:15.575Z,100.00
2018-09-04T09:49:44.742Z,100.00
2018-09-04T09:52:13.835Z,100.00
2018-09-04T09:54:43.012Z,100.00
2018-09-04T09:57:12.161Z,100.00
2018-09-04T09:59:41.722Z,100.00
2018-09-04T10:02:17.146Z,100.00
2018-09-04T10:04:46.299Z,100.00
2018-09-04T10:07:15.574Z,100.00
2018-09-04T10:09:44.732Z,100.00
2018-09-04T10:12:13.888Z,100.00
2018-09-04T10:14:43.012Z,100.00
2018-09-04T10:17:12.262Z,100.00
2018-09-04T10:19:41.439Z,100.00
2018-09-04T10:22:10.491Z,100.00
2018-09-04T10:24:39.754Z,100.00
2018-09-04T10:27:08.858Z,100.00
2018-09-04T10:29:38.047Z,100.00
2018-09-04T10:32:07.158Z,100.00
2018-09-04T10:34:36.339Z,100.00
2018-09-04T10:37:05.483Z,100.00
2018-09-04T10:39:39.980Z,100.00
2018-09-04T10:42:09.221Z,100.00
2018-09-04T10:44:38.368Z,100.00
2018-09-04T10:47:07.583Z,100.00
2018-09-04T10:49:36.759Z,100.00
2018-09-04T10:52:06.045Z,100.00
2018-09-04T10:54:35.188Z,100.00
2018-09-04T10:57:04.360Z,100.00
2018-09-04T10:59:33.473Z,100.00
2018-09-04T11:02:02.684Z,100.00
2018-09-04T11:04:31.857Z,100.00
2018-09-04T11:07:00.976Z,100.00
2018-09-04T11:09:30.168Z,100.00
2018-09-04T11:11:59.286Z,100.00
2018-09-04T11:14:28.433Z,100.00
2018-09-04T11:16:57.655Z,100.00
2018-09-04T11:19:26.915Z,100.00
2018-09-04T11:21:56.029Z,100.00
2018-09-04T11:24:25.246Z,100.00
2018-09-04T11:26:54.346Z,100.00
2018-09-04T11:29:23.499Z,100.00
2018-09-04T11:31:52.801Z,100.00
2018-09-04T11:34:21.917Z,100.00
2018-09-04T11:36:51.093Z,100.00
2018-09-04T11:39:20.395Z,100.00
2018-09-04T11:41:49.487Z,100.00
2018-09-04T11:44:18.658Z,100.00
2018-09-04T11:46:47.823Z,100.00
2018-09-04T11:49:16.982Z,100.00
2018-09-04T11:51:46.090Z,100.00
2018-09-04T11:54:15.273Z,100.00
2018-09-04T11:56:44.381Z,100.00
2018-09-04T11:59:13.492Z,100.00
2018-09-04T12:01:46.337Z,100.00
2018-09-04T12:04:15.543Z,100.00
2018-09-04T12:06:44.871Z,100.00
2018-09-04T12:09:14.229Z,100.00
2018-09-04T12:11:47.641Z,100.00
2018-09-04T12:14:16.762Z,100.00
2018-09-04T12:16:45.955Z,100.00
2018-09-04T12:19:15.111Z,100.00
2018-09-04T12:21:44.227Z,100.00
2018-09-04T12:24:13.395Z,100.00
2018-09-04T12:26:42.545Z,100.00
2018-09-04T12:29:11.719Z,100.00
2018-09-04T12:31:40.829Z,100.00
2018-09-04T12:34:09.956Z,100.00
2018-09-04T12:36:39.137Z,100.00
2018-09-04T12:39:08.200Z,100.00
2018-09-04T12:41:37.316Z,100.00
2018-09-04T12:44:06.495Z,100.00
2018-09-04T12:46:35.588Z,100.00
2018-09-04T12:49:04.910Z,100.00
2018-09-04T12:51:34.192Z,100.00
2018-09-04T12:54:03.320Z,100.00
2018-09-04T12:56:32.601Z,100.00
2018-09-04T12:59:01.915Z,100.00
2018-09-04T13:01:31.026Z,100.00
2018-09-04T13:04:00.152Z,100.00
2018-09-04T13:06:29.256Z,100.00
2018-09-04T13:08:58.449Z,100.00
2018-09-04T13:11:27.537Z,100.00
2018-09-04T13:13:56.762Z,100.00
2018-09-04T13:16:25.876Z,100.00
2018-09-04T13:18:54.978Z,100.00
2018-09-04T13:21:24.106Z,98.09
2018-09-04T13:23:53.212Z,96.16
2018-09-04T13:26:22.352Z,99.45
2018-09-04T13:28:51.540Z,96.23
2018-09-04T13:31:20.658Z,90.08
2018-09-04T13:33:49.839Z,98.73
2018-09-04T13:36:18.963Z,100.00
2018-09-04T13:38:48.100Z,97.40
2018-09-04T13:41:17.237Z,96.57
2018-09-04T13:43:46.377Z,96.96
2018-09-04T13:46:15.542Z,99.86
2018-09-04T13:48:44.784Z,98.72
2018-09-04T13:51:14.229Z,98.38
2018-09-04T13:53:43.411Z,96.77
2018-09-04T13:56:12.519Z,98.36
2018-09-04T13:58:41.631Z,100.00
2018-09-04T14:01:10.928Z,96.80
2018-09-04T14:03:40.009Z,90.89
2018-09-04T14:06:09.125Z,86.52
2018-09-04T14:08:38.213Z,87.25
2018-09-04T14:11:07.434Z,85.71
2018-09-04T14:13:37.617Z,89.04
2018-09-04T14:16:08.863Z,90.12
2018-09-04T14:18:38.213Z,85.54
2018-09-04T14:21:07.407Z,88.72
2018-09-04T14:23:36.765Z,81.62
2018-09-04T14:26:05.997Z,83.78
2018-09-04T14:28:42.149Z,75.41
2018-09-04T14:31:04.664Z,79.93
2018-09-04T14:33:34.116Z,77.17
2018-09-04T14:36:03.235Z,73.33
2018-09-04T14:38:32.370Z,73.62
2018-09-04T14:41:01.596Z,72.45
2018-09-04T14:43:30.735Z,73.87
2018-09-04T14:45:59.842Z,79.98
2018-09-04T14:48:29.068Z,82.25
2018-09-04T14:50:58.191Z,75.61
2018-09-04T14:53:27.336Z,71.98
2018-09-04T14:55:56.832Z,75.92
2018-09-04T14:58:25.948Z,73.70
2018-09-04T15:00:55.140Z,74.93
2018-09-04T15:03:24.552Z,75.84
2018-09-04T15:05:53.640Z,73.27
2018-09-04T15:08:22.751Z,79.50
2018-09-04T15:10:52.224Z,77.96
2018-09-04T15:13:21.313Z,70.16
2018-09-04T15:15:50.428Z,67.51
2018-09-04T15:18:19.550Z,67.80
2018-09-04T15:20:48.636Z,67.91
2018-09-04T15:23:17.728Z,63.46
2018-09-04T15:25:46.930Z,66.42
2018-09-04T15:28:16.402Z,64.39
2018-09-04T15:30:45.528Z,65.83
2018-09-04T15:33:14.723Z,65.68
2018-09-04T15:35:44.000Z,66.29
2018-09-04T15:38:13.059Z,66.31
2018-09-04T15:40:42.248Z,75.05
2018-09-04T15:43:11.429Z,78.21
2018-09-04T15:45:40.543Z,76.20
2018-09-04T15:48:09.665Z,73.27
2018-09-04T15:50:38.790Z,68.14
2018-09-04T15:53:07.972Z,69.13
2018-09-04T15:55:37.086Z,68.34
2018-09-04T15:58:06.283Z,66.18
2018-09-04T16:00:35.561Z,66.94
2018-09-04T16:03:04.802Z,69.02
2018-09-04T16:05:33.922Z,70.45
2018-09-04T16:08:04.087Z,73.99
2018-09-04T16:10:33.308Z,76.21
2018-09-04T16:13:02.483Z,79.27
2018-09-04T16:15:31.703Z,80.23
2018-09-04T16:18:00.872Z,81.85
2018-09-04T16:20:29.984Z,78.75
2018-09-04T16:22:59.100Z,75.84
2018-09-04T16:25:28.288Z,73.09
2018-09-04T16:27:57.456Z,75.11
2018-09-04T16:30:26.570Z,74.96
2018-09-04T16:32:55.950Z,74.18
2018-09-04T16:35:25.102Z,76.99
2018-09-04T16:37:54.248Z,79.23
2018-09-04T16:40:23.438Z,80.47
2018-09-04T16:42:52.551Z,80.27
2018-09-04T16:45:21.769Z,81.34
2018-09-04T16:47:50.879Z,82.28
2018-09-04T16:50:20.086Z,82.45
2018-09-04T16:52:49.225Z,84.26
2018-09-04T16:55:18.344Z,85.18
2018-09-04T16:57:47.529Z,84.40
2018-09-04T17:00:16.713Z,83.90
2018-09-04T17:02:45.852Z,84.81
2018-09-04T17:05:15.112Z,84.49
2018-09-04T17:07:44.461Z,85.19
2018-09-04T17:10:13.714Z,85.24
2018-09-04T17:12:42.830Z,89.24
2018-09-04T17:15:12.257Z,90.33
2018-09-04T17:17:41.430Z,91.22
2018-09-04T17:20:10.517Z,89.10
2018-09-04T17:22:39.729Z,89.97
2018-09-04T17:25:08.925Z,91.35
2018-09-04T17:27:38.141Z,91.64
2018-09-04T17:30:07.312Z,92.07
2018-09-04T17:32:36.534Z,92.16
2018-09-04T17:35:05.933Z,93.58
2018-09-04T17:37:35.123Z,96.25
2018-09-04T17:40:04.381Z,96.52
2018-09-04T17:42:33.508Z,97.89
2018-09-04T17:45:02.722Z,99.63
2018-09-04T17:47:32.890Z,100.00
2018-09-04T17:50:02.016Z,100.00
2018-09-04T17:52:31.224Z,100.00
2018-09-04T17:55:00.361Z,100.00
2018-09-04T17:57:29.590Z,100.00
2018-09-04T17:59:59.017Z,100.00
2018-09-04T18:02:28.247Z,100.00
2018-09-04T18:04:57.324Z,100.00
2018-09-04T18:07:26.448Z,100.00
2018-09-04T18:09:55.819Z,100.00
2018-09-04T18:12:24.992Z,100.00
2018-09-04T18:14:54.203Z,100.00
2018-09-04T18:17:23.320Z,100.00
2018-09-04T18:19:52.749Z,100.00
2018-09-04T18:22:21.893Z,100.00
2018-09-04T18:24:51.033Z,100.00
2018-09-04T18:27:20.183Z,100.00
2018-09-04T18:29:49.287Z,100.00
2018-09-04T18:32:18.505Z,100.00
2018-09-04T18:34:47.669Z,100.00
2018-09-04T18:37:16.853Z,100.00
2018-09-04T18:39:45.956Z,100.00
2018-09-04T18:42:15.147Z,100.00
2018-09-04T18:44:44.247Z,100.00
2018-09-04T18:47:13.408Z,100.00
2018-09-04T18:49:42.637Z,100.00
2018-09-04T18:52:11.751Z,100.00
2018-09-04T18:54:40.977Z,100.00
2018-09-04T18:57:10.083Z,100.00
2018-09-04T18:59:39.387Z,100.00
2018-09-04T19:02:08.563Z,100.00
2018-09-04T19:04:37.736Z,100.00
2018-09-04T19:07:06.939Z,100.00
2018-09-04T19:09:36.219Z,100.00
2018-09-04T19:12:05.455Z,100.00
2018-09-04T19:14:34.568Z,100.00
2018-09-04T19:17:03.815Z,100.00
2018-09-04T19:19:32.920Z,100.00
2018-09-04T19:22:02.144Z,100.00
2018-09-04T19:24:31.280Z,100.00
2018-09-04T19:27:00.396Z,100.00
2018-09-04T19:29:29.507Z,100.00
2018-09-04T19:31:58.736Z,100.00
2018-09-04T19:34:27.871Z,100.00
2018-09-04T19:36:56.969Z,100.00
2018-09-04T19:39:26.122Z,100.00
2018-09-04T19:41:55.296Z,100.00
2018-09-04T19:44:24.492Z,100.00
2018-09-04T19:46:53.703Z,100.00
2018-09-04T19:49:22.877Z,100.00
2018-09-04T19:51:51.999Z,100.00
2018-09-04T19:54:21.106Z,100.00
2018-09-04T19:56:50.201Z,100.00
2018-09-04T19:59:19.304Z,100.00
2018-09-04T20:01:48.713Z,100.00
2018-09-04T20:04:17.805Z,100.00
2018-09-04T20:06:46.987Z,100.00
2018-09-04T20:09:16.117Z,100.00
2018-09-04T20:11:45.229Z,100.00
2018-09-04T20:14:14.455Z,100.00
2018-09-04T20:16:44.101Z,100.00
2018-09-04T20:19:13.271Z,100.00
2018-09-04T20:21:42.483Z,100.00
2018-09-04T20:24:11.856Z,100.00
2018-09-04T20:26:40.961Z,100.00
2018-09-04T20:29:10.186Z,100.00
2018-09-04T20:31:39.608Z,100.00
2018-09-04T20:34:08.700Z,100.00
2018-09-04T20:36:37.944Z,100.00
2018-09-04T20:39:07.250Z,100.00
2018-09-04T20:41:36.402Z,100.00
2018-09-04T20:44:05.766Z,100.00
2018-09-04T20:46:35.345Z,100.00
2018-09-04T20:49:04.879Z,100.00
2018-09-04T20:51:34.206Z,100.00
2018-09-04T20:54:03.336Z,100.00
2018-09-04T20:56:32.421Z,100.00
2018-09-04T20:59:12.788Z,100.00
2018-09-04T21:01:53.352Z,100.00
2018-09-04T21:04:33.901Z,100.00
2018-09-04T21:07:01.996Z,100.00
2018-09-04T21:09:39.945Z,100.00
2018-09-04T21:12:09.602Z,100.00
2018-09-04T21:14:38.803Z,100.00
2018-09-04T21:17:07.977Z,100.00
2018-09-04T21:19:37.199Z,100.00
2018-09-04T21:22:06.329Z,100.00
2018-09-04T21:24:35.713Z,100.00
2018-09-04T21:27:05.011Z,100.00
2018-09-04T21:29:34.305Z,100.00
2018-09-04T21:32:03.710Z,100.00
2018-09-04T21:34:33.040Z,100.00
2018-09-04T21:37:38.130Z,100.00
2018-09-04T21:40:07.508Z,100.00
2018-09-04T21:42:36.645Z,100.00
2018-09-04T21:45:05.802Z,100.00
2018-09-04T21:47:35.241Z,100.00
2018-09-04T21:50:04.387Z,100.00
2018-09-04T21:52:33.516Z,100.00
2018-09-04T21:55:03.184Z,100.00
2018-09-04T21:57:32.485Z,100.00
2018-09-04T22:00:01.792Z,100.00
2018-09-04T22:02:30.924Z,100.00
2018-09-04T22:05:00.194Z,100.00
2018-09-04T22:07:29.637Z,100.00
2018-09-04T22:09:58.988Z,100.00
2018-09-04T22:12:28.332Z,100.00
2018-09-04T22:14:57.740Z,100.00
2018-09-04T22:17:26.870Z,100.00
2018-09-04T22:19:56.100Z,100.00
2018-09-04T22:22:25.292Z,100.00
2018-09-04T22:24:54.532Z,100.00
2018-09-04T22:27:23.668Z,100.00
2018-09-04T22:29:52.872Z,100.00
2018-09-04T22:32:21.984Z,100.00
2018-09-04T22:34:51.108Z,100.00
2018-09-04T22:37:20.364Z,100.00
2018-09-04T22:39:49.588Z,100.00
2018-09-04T22:42:18.685Z,100.00
2018-09-04T22:44:47.862Z,100.00
2018-09-04T22:47:17.045Z,100.00
2018-09-04T22:49:51.525Z,100.00
2018-09-04T22:52:24.921Z,100.00
2018-09-04T22:54:57.180Z,100.00
2018-09-04T22:57:26.296Z,100.00
2018-09-04T22:59:55.483Z,100.00
2018-09-04T23:02:24.635Z,100.00
2018-09-04T23:04:53.809Z,100.00
2018-09-04T23:07:22.937Z,100.00
2018-09-04T23:09:52.133Z,100.00
2018-09-04T23:12:21.257Z,100.00
2018-09-04T23:14:50.404Z,100.00
2018-09-04T23:17:19.657Z,100.00
2018-09-04T23:19:49.240Z,100.00
2018-09-04T23:22:18.365Z,100.00
2018-09-04T23:24:47.709Z,100.00
2018-09-04T23:27:16.823Z,100.00
2018-09-04T23:29:45.942Z,100.00
2018-09-04T23:32:15.205Z,100.00
2018-09-04T23:34:44.464Z,100.00
2018-09-04T23:37:13.703Z,100.00
2018-09-04T23:39:42.904Z,100.00
2018-09-04T23:42:12.084Z,100.00
2018-09-04T23:44:41.284Z,100.00
2018-09-04T23:47:10.545Z,100.00
2018-09-04T23:49:39.667Z,100.00
2018-09-04T23:52:08.921Z,100.00
2018-09-04T23:54:38.128Z,100.00
2018-09-04T23:57:07.284Z,100.00
2018-09-04T23:59:36.480Z,100.00
